sensor_id;sensor_type;location;lat;lon;timestamp;temperature;humidity
26503;DHT22;14177;51.520;6.764;2023-12-04T00:01:15;1.00;99.90
26503;DHT22;14177;51.520;6.764;2023-12-04T00:03:43;1.00;99.90
26503;DHT22;14177;51.520;6.764;2023-12-04T00:06:10;1.00;99.90
26503;DHT22;14177;51.520;6.764;2023-12-04T00:08:38;1.00;99.90
26503;DHT22;14177;51.520;6.764;2023-12-04T00:11:05;0.90;99.90
26503;DHT22;14177;51.520;6.764;2023-12-04T00:13:33;1.00;99.90
26503;DHT22;14177;51.520;6.764;2023-12-04T00:16:01;1.00;99.90
26503;DHT22;14177;51.520;6.764;2023-12-04T00:18:29;1.00;99.90
26503;DHT22;14177;51.520;6.764;2023-12-04T00:20:56;1.00;99.90
26503;DHT22;14177;51.520;6.764;2023-12-04T00:23:23;1.00;99.90
26503;DHT22;14177;51.520;6.764;2023-12-04T00:25:51;1.00;99.90
26503;DHT22;14177;51.520;6.764;2023-12-04T00:28:18;1.00;99.90
26503;DHT22;14177;51.520;6.764;2023-12-04T00:30:46;1.10;99.90
26503;DHT22;14177;51.520;6.764;2023-12-04T00:33:13;1.10;99.90
26503;DHT22;14177;51.520;6.764;2023-12-04T00:35:40;1.10;99.90
26503;DHT22;14177;51.520;6.764;2023-12-04T00:38:07;1.10;99.90
26503;DHT22;14177;51.520;6.764;2023-12-04T00:40:34;1.20;99.90
26503;DHT22;14177;51.520;6.764;2023-12-04T00:43:01;1.20;99.90
26503;DHT22;14177;51.520;6.764;2023-12-04T00:45:28;1.20;99.90
26503;DHT22;14177;51.520;6.764;2023-12-04T00:47:55;1.20;99.90
26503;DHT22;14177;51.520;6.764;2023-12-04T00:50:22;1.20;99.90
26503;DHT22;14177;51.520;6.764;2023-12-04T00:52:49;1.20;99.90
26503;DHT22;14177;51.520;6.764;2023-12-04T00:55:16;1.20;99.90
26503;DHT22;14177;51.520;6.764;2023-12-04T00:57:43;1.30;99.90
26503;DHT22;14177;51.520;6.764;2023-12-04T01:00:18;1.30;99.90
26503;DHT22;14177;51.520;6.764;2023-12-04T01:02:45;1.30;99.90
26503;DHT22;14177;51.520;6.764;2023-12-04T01:05:12;1.30;99.90
26503;DHT22;14177;51.520;6.764;2023-12-04T01:07:39;1.30;99.90
26503;DHT22;14177;51.520;6.764;2023-12-04T01:10:07;1.30;99.90
26503;DHT22;14177;51.520;6.764;2023-12-04T01:12:34;1.30;99.90
26503;DHT22;14177;51.520;6.764;2023-12-04T01:15:01;1.40;99.90
26503;DHT22;14177;51.520;6.764;2023-12-04T01:17:29;1.40;99.90
26503;DHT22;14177;51.520;6.764;2023-12-04T01:19:56;1.40;99.90
26503;DHT22;14177;51.520;6.764;2023-12-04T01:22:24;1.40;99.90
26503;DHT22;14177;51.520;6.764;2023-12-04T01:24:51;1.40;99.90
26503;DHT22;14177;51.520;6.764;2023-12-04T01:27:18;1.40;99.90
26503;DHT22;14177;51.520;6.764;2023-12-04T01:29:44;1.40;99.90
26503;DHT22;14177;51.520;6.764;2023-12-04T01:32:11;1.40;99.90
26503;DHT22;14177;51.520;6.764;2023-12-04T01:34:38;1.40;99.90
26503;DHT22;14177;51.520;6.764;2023-12-04T01:37:05;1.40;99.90
26503;DHT22;14177;51.520;6.764;2023-12-04T01:39:32;1.40;99.90
26503;DHT22;14177;51.520;6.764;2023-12-04T01:41:59;1.40;99.90
26503;DHT22;14177;51.520;6.764;2023-12-04T01:44:26;1.40;99.90
26503;DHT22;14177;51.520;6.764;2023-12-04T01:46:54;1.40;99.90
26503;DHT22;14177;51.520;6.764;2023-12-04T01:49:21;1.40;99.90
26503;DHT22;14177;51.520;6.764;2023-12-04T01:51:48;1.40;99.90
26503;DHT22;14177;51.520;6.764;2023-12-04T01:54:16;1.30;99.90
26503;DHT22;14177;51.520;6.764;2023-12-04T01:56:44;1.30;99.90
26503;DHT22;14177;51.520;6.764;2023-12-04T01:59:11;1.30;99.90
26503;DHT22;14177;51.520;6.764;2023-12-04T02:01:39;1.30;99.90
26503;DHT22;14177;51.520;6.764;2023-12-04T02:04:07;1.30;99.90
26503;DHT22;14177;51.520;6.764;2023-12-04T02:06:35;1.30;99.90
26503;DHT22;14177;51.520;6.764;2023-12-04T02:09:02;1.30;99.90
26503;DHT22;14177;51.520;6.764;2023-12-04T02:11:29;1.30;99.90
26503;DHT22;14177;51.520;6.764;2023-12-04T02:13:56;1.30;99.90
26503;DHT22;14177;51.520;6.764;2023-12-04T02:16:26;1.30;99.90
26503;DHT22;14177;51.520;6.764;2023-12-04T02:18:56;1.30;99.90
26503;DHT22;14177;51.520;6.764;2023-12-04T02:21:23;1.30;99.90
26503;DHT22;14177;51.520;6.764;2023-12-04T02:23:51;1.30;99.90
26503;DHT22;14177;51.520;6.764;2023-12-04T02:26:23;1.40;99.90
26503;DHT22;14177;51.520;6.764;2023-12-04T02:29:05;1.30;99.90
26503;DHT22;14177;51.520;6.764;2023-12-04T02:31:39;1.30;99.90
26503;DHT22;14177;51.520;6.764;2023-12-04T02:34:08;1.40;99.90
26503;DHT22;14177;51.520;6.764;2023-12-04T02:36:37;1.30;99.90
26503;DHT22;14177;51.520;6.764;2023-12-04T02:39:06;1.40;99.90
26503;DHT22;14177;51.520;6.764;2023-12-04T02:41:34;1.40;99.90
26503;DHT22;14177;51.520;6.764;2023-12-04T02:44:01;1.40;99.90
26503;DHT22;14177;51.520;6.764;2023-12-04T02:46:28;1.40;99.90
26503;DHT22;14177;51.520;6.764;2023-12-04T02:48:55;1.40;99.90
26503;DHT22;14177;51.520;6.764;2023-12-04T02:51:22;1.40;99.90
26503;DHT22;14177;51.520;6.764;2023-12-04T02:53:52;1.40;99.90
26503;DHT22;14177;51.520;6.764;2023-12-04T02:56:19;1.40;99.90
26503;DHT22;14177;51.520;6.764;2023-12-04T02:58:46;1.40;99.90
26503;DHT22;14177;51.520;6.764;2023-12-04T03:01:13;1.40;99.90
26503;DHT22;14177;51.520;6.764;2023-12-04T03:03:40;1.50;99.90
26503;DHT22;14177;51.520;6.764;2023-12-04T03:06:08;1.50;99.90
26503;DHT22;14177;51.520;6.764;2023-12-04T03:08:35;1.50;99.90
26503;DHT22;14177;51.520;6.764;2023-12-04T03:11:02;1.50;99.90
26503;DHT22;14177;51.520;6.764;2023-12-04T03:13:30;1.50;99.90
26503;DHT22;14177;51.520;6.764;2023-12-04T03:15:58;1.50;99.90
26503;DHT22;14177;51.520;6.764;2023-12-04T03:18:25;1.50;99.90
26503;DHT22;14177;51.520;6.764;2023-12-04T03:20:53;1.50;99.90
26503;DHT22;14177;51.520;6.764;2023-12-04T03:23:20;1.50;99.90
26503;DHT22;14177;51.520;6.764;2023-12-04T03:25:47;1.50;99.90
26503;DHT22;14177;51.520;6.764;2023-12-04T03:28:14;1.50;99.90
26503;DHT22;14177;51.520;6.764;2023-12-04T03:30:42;1.50;99.90
26503;DHT22;14177;51.520;6.764;2023-12-04T03:33:12;1.50;99.90
26503;DHT22;14177;51.520;6.764;2023-12-04T03:35:39;1.50;99.90
26503;DHT22;14177;51.520;6.764;2023-12-04T03:38:06;1.50;99.90
26503;DHT22;14177;51.520;6.764;2023-12-04T03:40:33;1.50;99.90
26503;DHT22;14177;51.520;6.764;2023-12-04T03:43:00;1.50;99.90
26503;DHT22;14177;51.520;6.764;2023-12-04T03:45:28;1.50;99.90
26503;DHT22;14177;51.520;6.764;2023-12-04T03:47:56;1.50;99.90
26503;DHT22;14177;51.520;6.764;2023-12-04T03:50:23;1.50;99.90
26503;DHT22;14177;51.520;6.764;2023-12-04T03:52:50;1.50;99.90
26503;DHT22;14177;51.520;6.764;2023-12-04T03:55:17;1.50;99.90
26503;DHT22;14177;51.520;6.764;2023-12-04T03:57:46;1.50;99.90
26503;DHT22;14177;51.520;6.764;2023-12-04T04:00:13;1.50;99.90
26503;DHT22;14177;51.520;6.764;2023-12-04T04:02:42;1.50;99.90
26503;DHT22;14177;51.520;6.764;2023-12-04T04:05:10;1.50;99.90
26503;DHT22;14177;51.520;6.764;2023-12-04T04:07:37;1.50;99.90
26503;DHT22;14177;51.520;6.764;2023-12-04T04:10:05;1.60;99.90
26503;DHT22;14177;51.520;6.764;2023-12-04T04:12:33;1.60;99.90
26503;DHT22;14177;51.520;6.764;2023-12-04T04:15:01;1.60;99.90
26503;DHT22;14177;51.520;6.764;2023-12-04T04:17:28;1.60;99.90
26503;DHT22;14177;51.520;6.764;2023-12-04T04:19:56;1.60;99.90
26503;DHT22;14177;51.520;6.764;2023-12-04T04:22:23;1.70;99.90
26503;DHT22;14177;51.520;6.764;2023-12-04T04:24:50;1.70;99.90
26503;DHT22;14177;51.520;6.764;2023-12-04T04:27:17;1.70;99.90
26503;DHT22;14177;51.520;6.764;2023-12-04T04:29:44;1.80;99.90
26503;DHT22;14177;51.520;6.764;2023-12-04T04:32:11;1.80;99.90
26503;DHT22;14177;51.520;6.764;2023-12-04T04:34:40;1.70;99.90
26503;DHT22;14177;51.520;6.764;2023-12-04T04:37:07;1.80;99.90
26503;DHT22;14177;51.520;6.764;2023-12-04T04:39:34;1.80;99.90
26503;DHT22;14177;51.520;6.764;2023-12-04T04:42:01;1.80;99.90
26503;DHT22;14177;51.520;6.764;2023-12-04T04:44:28;1.80;99.90
26503;DHT22;14177;51.520;6.764;2023-12-04T04:46:55;1.80;99.90
26503;DHT22;14177;51.520;6.764;2023-12-04T04:49:22;1.80;99.90
26503;DHT22;14177;51.520;6.764;2023-12-04T04:51:49;1.80;99.90
26503;DHT22;14177;51.520;6.764;2023-12-04T04:54:16;1.80;99.90
26503;DHT22;14177;51.520;6.764;2023-12-04T04:56:43;1.90;99.90
26503;DHT22;14177;51.520;6.764;2023-12-04T04:59:10;1.80;99.90
26503;DHT22;14177;51.520;6.764;2023-12-04T05:01:37;1.80;99.90
26503;DHT22;14177;51.520;6.764;2023-12-04T05:04:04;1.80;99.90
26503;DHT22;14177;51.520;6.764;2023-12-04T05:06:31;1.80;99.90
26503;DHT22;14177;51.520;6.764;2023-12-04T05:08:58;1.80;99.90
26503;DHT22;14177;51.520;6.764;2023-12-04T05:11:25;1.80;99.90
26503;DHT22;14177;51.520;6.764;2023-12-04T05:13:53;1.90;99.90
26503;DHT22;14177;51.520;6.764;2023-12-04T05:16:20;1.90;99.90
26503;DHT22;14177;51.520;6.764;2023-12-04T05:18:53;1.90;99.90
26503;DHT22;14177;51.520;6.764;2023-12-04T05:21:20;1.90;99.90
26503;DHT22;14177;51.520;6.764;2023-12-04T05:23:47;1.90;99.90
26503;DHT22;14177;51.520;6.764;2023-12-04T05:26:15;1.90;99.90
26503;DHT22;14177;51.520;6.764;2023-12-04T05:28:42;1.80;99.90
26503;DHT22;14177;51.520;6.764;2023-12-04T05:31:09;1.90;99.90
26503;DHT22;14177;51.520;6.764;2023-12-04T05:33:36;1.90;99.90
26503;DHT22;14177;51.520;6.764;2023-12-04T05:36:06;1.90;99.90
26503;DHT22;14177;51.520;6.764;2023-12-04T05:38:33;1.90;99.90
26503;DHT22;14177;51.520;6.764;2023-12-04T05:41:00;1.90;99.90
26503;DHT22;14177;51.520;6.764;2023-12-04T05:43:27;1.90;99.90
26503;DHT22;14177;51.520;6.764;2023-12-04T05:45:54;1.90;99.90
26503;DHT22;14177;51.520;6.764;2023-12-04T05:48:21;1.90;99.90
26503;DHT22;14177;51.520;6.764;2023-12-04T05:50:48;1.90;99.90
26503;DHT22;14177;51.520;6.764;2023-12-04T05:53:15;1.90;99.90
26503;DHT22;14177;51.520;6.764;2023-12-04T05:55:43;1.90;99.90
26503;DHT22;14177;51.520;6.764;2023-12-04T05:58:10;1.90;99.90
26503;DHT22;14177;51.520;6.764;2023-12-04T06:00:37;1.90;99.90
26503;DHT22;14177;51.520;6.764;2023-12-04T06:03:04;1.80;99.90
26503;DHT22;14177;51.520;6.764;2023-12-04T06:05:31;1.80;99.90
26503;DHT22;14177;51.520;6.764;2023-12-04T06:07:58;1.80;99.90
26503;DHT22;14177;51.520;6.764;2023-12-04T06:10:25;1.80;99.90
26503;DHT22;14177;51.520;6.764;2023-12-04T06:12:52;1.90;99.90
26503;DHT22;14177;51.520;6.764;2023-12-04T06:15:19;1.80;99.90
26503;DHT22;14177;51.520;6.764;2023-12-04T06:17:46;1.90;99.90
26503;DHT22;14177;51.520;6.764;2023-12-04T06:20:13;1.90;99.90
26503;DHT22;14177;51.520;6.764;2023-12-04T06:22:40;1.90;99.90
26503;DHT22;14177;51.520;6.764;2023-12-04T06:25:08;1.90;99.90
26503;DHT22;14177;51.520;6.764;2023-12-04T06:27:35;1.90;99.90
26503;DHT22;14177;51.520;6.764;2023-12-04T06:30:03;1.90;99.90
26503;DHT22;14177;51.520;6.764;2023-12-04T06:32:32;1.90;99.90
26503;DHT22;14177;51.520;6.764;2023-12-04T06:34:59;1.90;99.90
26503;DHT22;14177;51.520;6.764;2023-12-04T06:37:27;1.90;99.90
26503;DHT22;14177;51.520;6.764;2023-12-04T06:39:55;1.90;99.90
26503;DHT22;14177;51.520;6.764;2023-12-04T06:42:27;1.90;99.90
26503;DHT22;14177;51.520;6.764;2023-12-04T06:44:54;1.90;99.90
26503;DHT22;14177;51.520;6.764;2023-12-04T06:47:23;1.90;99.90
26503;DHT22;14177;51.520;6.764;2023-12-04T06:49:50;1.90;99.90
26503;DHT22;14177;51.520;6.764;2023-12-04T06:52:17;1.90;99.90
26503;DHT22;14177;51.520;6.764;2023-12-04T06:54:44;1.90;99.90
26503;DHT22;14177;51.520;6.764;2023-12-04T06:57:11;1.90;99.90
26503;DHT22;14177;51.520;6.764;2023-12-04T06:59:43;1.90;99.90
26503;DHT22;14177;51.520;6.764;2023-12-04T07:02:10;1.90;99.90
26503;DHT22;14177;51.520;6.764;2023-12-04T07:04:37;1.90;99.90
26503;DHT22;14177;51.520;6.764;2023-12-04T07:07:05;1.90;99.90
26503;DHT22;14177;51.520;6.764;2023-12-04T07:09:33;1.90;99.90
26503;DHT22;14177;51.520;6.764;2023-12-04T07:12:01;1.90;99.90
26503;DHT22;14177;51.520;6.764;2023-12-04T07:14:29;1.90;99.90
26503;DHT22;14177;51.520;6.764;2023-12-04T07:16:56;1.90;99.90
26503;DHT22;14177;51.520;6.764;2023-12-04T07:19:23;2.00;99.90
26503;DHT22;14177;51.520;6.764;2023-12-04T07:21:51;1.90;99.90
26503;DHT22;14177;51.520;6.764;2023-12-04T07:24:18;1.90;99.90
26503;DHT22;14177;51.520;6.764;2023-12-04T07:26:45;1.90;99.90
26503;DHT22;14177;51.520;6.764;2023-12-04T07:29:12;1.90;99.90
26503;DHT22;14177;51.520;6.764;2023-12-04T07:31:41;1.90;99.90
26503;DHT22;14177;51.520;6.764;2023-12-04T07:34:08;1.90;99.90
26503;DHT22;14177;51.520;6.764;2023-12-04T07:36:35;1.90;99.90
26503;DHT22;14177;51.520;6.764;2023-12-04T07:39:02;1.90;99.90
26503;DHT22;14177;51.520;6.764;2023-12-04T07:41:33;1.90;99.90
26503;DHT22;14177;51.520;6.764;2023-12-04T07:44:00;1.90;99.90
26503;DHT22;14177;51.520;6.764;2023-12-04T07:46:27;1.90;99.90
26503;DHT22;14177;51.520;6.764;2023-12-04T07:48:54;2.00;99.90
26503;DHT22;14177;51.520;6.764;2023-12-04T07:51:22;2.00;99.90
26503;DHT22;14177;51.520;6.764;2023-12-04T07:53:50;2.00;99.90
26503;DHT22;14177;51.520;6.764;2023-12-04T07:56:17;2.00;99.90
26503;DHT22;14177;51.520;6.764;2023-12-04T07:58:44;2.10;99.90
26503;DHT22;14177;51.520;6.764;2023-12-04T08:01:11;2.10;99.90
26503;DHT22;14177;51.520;6.764;2023-12-04T08:03:38;2.10;99.90
26503;DHT22;14177;51.520;6.764;2023-12-04T08:06:05;2.10;99.90
26503;DHT22;14177;51.520;6.764;2023-12-04T08:08:32;2.10;99.90
26503;DHT22;14177;51.520;6.764;2023-12-04T08:10:59;2.10;99.90
26503;DHT22;14177;51.520;6.764;2023-12-04T08:13:26;2.20;99.90
26503;DHT22;14177;51.520;6.764;2023-12-04T08:15:53;2.20;99.90
26503;DHT22;14177;51.520;6.764;2023-12-04T08:18:20;2.20;99.90
26503;DHT22;14177;51.520;6.764;2023-12-04T08:20:47;2.20;99.90
26503;DHT22;14177;51.520;6.764;2023-12-04T08:23:14;2.20;99.90
26503;DHT22;14177;51.520;6.764;2023-12-04T08:25:42;2.20;99.90
26503;DHT22;14177;51.520;6.764;2023-12-04T08:28:08;2.20;99.90
26503;DHT22;14177;51.520;6.764;2023-12-04T08:30:36;2.20;99.90
26503;DHT22;14177;51.520;6.764;2023-12-04T08:33:03;2.30;99.90
26503;DHT22;14177;51.520;6.764;2023-12-04T08:35:30;2.40;99.90
26503;DHT22;14177;51.520;6.764;2023-12-04T08:37:57;2.40;99.90
26503;DHT22;14177;51.520;6.764;2023-12-04T08:40:24;2.40;99.90
26503;DHT22;14177;51.520;6.764;2023-12-04T08:42:51;2.50;99.90
26503;DHT22;14177;51.520;6.764;2023-12-04T08:45:19;2.50;99.90
26503;DHT22;14177;51.520;6.764;2023-12-04T08:47:46;2.50;99.90
26503;DHT22;14177;51.520;6.764;2023-12-04T08:50:13;2.60;99.90
26503;DHT22;14177;51.520;6.764;2023-12-04T08:52:40;2.60;99.90
26503;DHT22;14177;51.520;6.764;2023-12-04T08:55:09;2.60;99.90
26503;DHT22;14177;51.520;6.764;2023-12-04T08:57:36;2.70;99.90
26503;DHT22;14177;51.520;6.764;2023-12-04T09:00:04;2.70;99.90
26503;DHT22;14177;51.520;6.764;2023-12-04T09:02:31;2.70;99.90
26503;DHT22;14177;51.520;6.764;2023-12-04T09:04:59;2.70;99.90
26503;DHT22;14177;51.520;6.764;2023-12-04T09:07:26;2.80;99.90
26503;DHT22;14177;51.520;6.764;2023-12-04T09:10:13;2.80;99.90
26503;DHT22;14177;51.520;6.764;2023-12-04T09:13:00;2.80;99.90
26503;DHT22;14177;51.520;6.764;2023-12-04T09:15:28;2.90;99.90
26503;DHT22;14177;51.520;6.764;2023-12-04T09:17:55;2.90;99.90
26503;DHT22;14177;51.520;6.764;2023-12-04T09:20:22;3.00;99.90
26503;DHT22;14177;51.520;6.764;2023-12-04T09:22:49;3.00;99.90
26503;DHT22;14177;51.520;6.764;2023-12-04T09:25:23;3.00;99.90
26503;DHT22;14177;51.520;6.764;2023-12-04T09:27:50;3.10;99.90
26503;DHT22;14177;51.520;6.764;2023-12-04T09:30:17;3.10;99.90
26503;DHT22;14177;51.520;6.764;2023-12-04T09:32:44;3.20;99.90
26503;DHT22;14177;51.520;6.764;2023-12-04T09:35:11;3.20;99.90
26503;DHT22;14177;51.520;6.764;2023-12-04T09:37:38;3.20;99.90
26503;DHT22;14177;51.520;6.764;2023-12-04T09:40:06;3.20;99.90
26503;DHT22;14177;51.520;6.764;2023-12-04T09:42:35;3.20;99.90
26503;DHT22;14177;51.520;6.764;2023-12-04T09:45:03;3.20;99.90
26503;DHT22;14177;51.520;6.764;2023-12-04T09:47:32;3.20;99.90
26503;DHT22;14177;51.520;6.764;2023-12-04T09:50:01;3.30;99.90
26503;DHT22;14177;51.520;6.764;2023-12-04T09:52:30;3.30;99.90
26503;DHT22;14177;51.520;6.764;2023-12-04T09:54:58;3.30;99.90
26503;DHT22;14177;51.520;6.764;2023-12-04T09:57:25;3.30;99.90
26503;DHT22;14177;51.520;6.764;2023-12-04T09:59:53;3.40;99.90
26503;DHT22;14177;51.520;6.764;2023-12-04T10:02:20;3.30;99.90
26503;DHT22;14177;51.520;6.764;2023-12-04T10:04:50;3.40;99.90
26503;DHT22;14177;51.520;6.764;2023-12-04T10:07:19;3.40;99.90
26503;DHT22;14177;51.520;6.764;2023-12-04T10:09:46;3.40;99.90
26503;DHT22;14177;51.520;6.764;2023-12-04T10:12:13;3.50;99.90
26503;DHT22;14177;51.520;6.764;2023-12-04T10:14:40;3.50;99.90
26503;DHT22;14177;51.520;6.764;2023-12-04T10:17:16;3.50;99.90
26503;DHT22;14177;51.520;6.764;2023-12-04T10:19:44;3.60;99.90
26503;DHT22;14177;51.520;6.764;2023-12-04T10:22:11;3.60;99.90
26503;DHT22;14177;51.520;6.764;2023-12-04T10:24:40;3.60;99.90
26503;DHT22;14177;51.520;6.764;2023-12-04T10:27:09;3.50;99.90
26503;DHT22;14177;51.520;6.764;2023-12-04T10:29:46;3.60;99.90
26503;DHT22;14177;51.520;6.764;2023-12-04T10:32:20;3.60;99.90
26503;DHT22;14177;51.520;6.764;2023-12-04T10:34:50;3.60;99.90
26503;DHT22;14177;51.520;6.764;2023-12-04T10:37:17;3.60;99.90
26503;DHT22;14177;51.520;6.764;2023-12-04T10:39:48;3.60;99.90
26503;DHT22;14177;51.520;6.764;2023-12-04T10:42:29;3.60;99.90
26503;DHT22;14177;51.520;6.764;2023-12-04T10:44:59;3.60;99.90
26503;DHT22;14177;51.520;6.764;2023-12-04T10:47:29;3.60;99.90
26503;DHT22;14177;51.520;6.764;2023-12-04T10:49:59;3.60;99.90
26503;DHT22;14177;51.520;6.764;2023-12-04T10:52:28;3.60;99.90
26503;DHT22;14177;51.520;6.764;2023-12-04T10:54:57;3.70;99.90
26503;DHT22;14177;51.520;6.764;2023-12-04T10:57:33;3.60;99.90
26503;DHT22;14177;51.520;6.764;2023-12-04T11:00:05;3.70;99.90
26503;DHT22;14177;51.520;6.764;2023-12-04T11:02:35;3.70;99.90
26503;DHT22;14177;51.520;6.764;2023-12-04T11:05:15;3.70;99.90
26503;DHT22;14177;51.520;6.764;2023-12-04T11:07:51;3.70;99.90
26503;DHT22;14177;51.520;6.764;2023-12-04T11:11:01;3.70;99.90
26503;DHT22;14177;51.520;6.764;2023-12-04T11:13:32;3.70;99.90
26503;DHT22;14177;51.520;6.764;2023-12-04T11:16:22;3.80;99.90
26503;DHT22;14177;51.520;6.764;2023-12-04T11:19:12;3.80;99.90
26503;DHT22;14177;51.520;6.764;2023-12-04T11:21:50;3.70;99.90
26503;DHT22;14177;51.520;6.764;2023-12-04T11:24:18;3.80;99.90
26503;DHT22;14177;51.520;6.764;2023-12-04T11:26:45;3.80;99.90
26503;DHT22;14177;51.520;6.764;2023-12-04T11:29:14;3.80;99.90
26503;DHT22;14177;51.520;6.764;2023-12-04T11:31:42;3.80;99.90
26503;DHT22;14177;51.520;6.764;2023-12-04T11:34:09;3.80;99.90
26503;DHT22;14177;51.520;6.764;2023-12-04T11:36:37;3.70;99.90
26503;DHT22;14177;51.520;6.764;2023-12-04T11:39:09;3.70;99.90
26503;DHT22;14177;51.520;6.764;2023-12-04T11:41:40;3.80;99.90
26503;DHT22;14177;51.520;6.764;2023-12-04T11:44:12;3.80;99.90
26503;DHT22;14177;51.520;6.764;2023-12-04T11:47:19;3.80;99.90
26503;DHT22;14177;51.520;6.764;2023-12-04T11:49:46;3.80;99.90
26503;DHT22;14177;51.520;6.764;2023-12-04T11:52:14;3.70;99.90
26503;DHT22;14177;51.520;6.764;2023-12-04T11:55:01;3.70;99.90
26503;DHT22;14177;51.520;6.764;2023-12-04T11:57:36;3.70;99.90
26503;DHT22;14177;51.520;6.764;2023-12-04T12:00:18;3.70;99.90
26503;DHT22;14177;51.520;6.764;2023-12-04T12:05:49;3.60;99.90
26503;DHT22;14177;51.520;6.764;2023-12-04T12:08:20;3.60;99.90
26503;DHT22;14177;51.520;6.764;2023-12-04T12:10:49;3.50;99.90
26503;DHT22;14177;51.520;6.764;2023-12-04T12:13:17;3.50;99.90
26503;DHT22;14177;51.520;6.764;2023-12-04T12:15:47;3.40;99.90
26503;DHT22;14177;51.520;6.764;2023-12-04T12:18:17;3.40;99.90
26503;DHT22;14177;51.520;6.764;2023-12-04T12:20:45;3.40;99.90
26503;DHT22;14177;51.520;6.764;2023-12-04T12:23:12;3.40;99.90
26503;DHT22;14177;51.520;6.764;2023-12-04T12:25:39;3.40;99.90
26503;DHT22;14177;51.520;6.764;2023-12-04T12:28:06;3.40;99.90
26503;DHT22;14177;51.520;6.764;2023-12-04T12:30:33;3.30;99.90
26503;DHT22;14177;51.520;6.764;2023-12-04T12:33:00;3.30;99.90
26503;DHT22;14177;51.520;6.764;2023-12-04T12:35:27;3.30;99.90
26503;DHT22;14177;51.520;6.764;2023-12-04T12:37:55;3.20;99.90
26503;DHT22;14177;51.520;6.764;2023-12-04T12:40:23;3.20;99.90
26503;DHT22;14177;51.520;6.764;2023-12-04T12:43:04;3.20;99.90
26503;DHT22;14177;51.520;6.764;2023-12-04T12:45:43;3.10;99.90
26503;DHT22;14177;51.520;6.764;2023-12-04T12:48:15;3.10;99.90
26503;DHT22;14177;51.520;6.764;2023-12-04T12:50:46;3.10;99.90
26503;DHT22;14177;51.520;6.764;2023-12-04T12:53:14;3.10;99.90
26503;DHT22;14177;51.520;6.764;2023-12-04T12:55:41;3.10;99.90
26503;DHT22;14177;51.520;6.764;2023-12-04T12:58:12;3.10;99.90
26503;DHT22;14177;51.520;6.764;2023-12-04T13:00:41;3.10;99.90
26503;DHT22;14177;51.520;6.764;2023-12-04T13:03:14;3.10;99.90
26503;DHT22;14177;51.520;6.764;2023-12-04T13:05:45;3.10;99.90
26503;DHT22;14177;51.520;6.764;2023-12-04T13:08:13;3.10;99.90
26503;DHT22;14177;51.520;6.764;2023-12-04T13:10:43;3.20;99.90
26503;DHT22;14177;51.520;6.764;2023-12-04T13:13:11;3.20;99.90
26503;DHT22;14177;51.520;6.764;2023-12-04T13:15:40;3.20;99.90
26503;DHT22;14177;51.520;6.764;2023-12-04T13:18:09;3.20;99.90
26503;DHT22;14177;51.520;6.764;2023-12-04T13:20:36;3.30;99.90
26503;DHT22;14177;51.520;6.764;2023-12-04T13:23:03;3.30;99.90
26503;DHT22;14177;51.520;6.764;2023-12-04T13:25:30;3.30;99.90
26503;DHT22;14177;51.520;6.764;2023-12-04T13:27:58;3.30;99.90
26503;DHT22;14177;51.520;6.764;2023-12-04T13:30:25;3.30;99.90
26503;DHT22;14177;51.520;6.764;2023-12-04T13:32:52;3.40;99.90
26503;DHT22;14177;51.520;6.764;2023-12-04T13:35:20;3.30;99.90
26503;DHT22;14177;51.520;6.764;2023-12-04T13:37:47;3.40;99.90
26503;DHT22;14177;51.520;6.764;2023-12-04T13:40:21;3.30;99.90
26503;DHT22;14177;51.520;6.764;2023-12-04T13:42:48;3.30;99.90
26503;DHT22;14177;51.520;6.764;2023-12-04T13:45:34;3.30;99.90
26503;DHT22;14177;51.520;6.764;2023-12-04T13:48:02;3.30;99.90
26503;DHT22;14177;51.520;6.764;2023-12-04T13:50:29;3.30;99.90
26503;DHT22;14177;51.520;6.764;2023-12-04T13:52:56;3.30;99.90
26503;DHT22;14177;51.520;6.764;2023-12-04T13:55:24;3.30;99.90
26503;DHT22;14177;51.520;6.764;2023-12-04T13:58:12;3.30;99.90
26503;DHT22;14177;51.520;6.764;2023-12-04T14:00:59;3.30;99.90
26503;DHT22;14177;51.520;6.764;2023-12-04T14:03:29;3.30;99.90
26503;DHT22;14177;51.520;6.764;2023-12-04T14:05:57;3.30;99.90
26503;DHT22;14177;51.520;6.764;2023-12-04T14:08:27;3.30;99.90
26503;DHT22;14177;51.520;6.764;2023-12-04T14:10:54;3.30;99.90
26503;DHT22;14177;51.520;6.764;2023-12-04T14:13:22;3.30;99.90
26503;DHT22;14177;51.520;6.764;2023-12-04T14:15:49;3.30;99.90
26503;DHT22;14177;51.520;6.764;2023-12-04T14:18:16;3.30;99.90
26503;DHT22;14177;51.520;6.764;2023-12-04T14:20:43;3.20;99.90
26503;DHT22;14177;51.520;6.764;2023-12-04T14:23:10;3.30;99.90
26503;DHT22;14177;51.520;6.764;2023-12-04T14:25:37;3.30;99.90
26503;DHT22;14177;51.520;6.764;2023-12-04T14:28:04;3.30;99.90
26503;DHT22;14177;51.520;6.764;2023-12-04T14:30:31;3.30;99.90
26503;DHT22;14177;51.520;6.764;2023-12-04T14:32:58;3.30;99.90
26503;DHT22;14177;51.520;6.764;2023-12-04T14:35:26;3.20;99.90
26503;DHT22;14177;51.520;6.764;2023-12-04T14:37:53;3.30;99.90
26503;DHT22;14177;51.520;6.764;2023-12-04T14:40:20;3.30;99.90
26503;DHT22;14177;51.520;6.764;2023-12-04T14:42:47;3.30;99.90
26503;DHT22;14177;51.520;6.764;2023-12-04T14:45:14;3.30;99.90
26503;DHT22;14177;51.520;6.764;2023-12-04T14:47:43;3.30;99.90
26503;DHT22;14177;51.520;6.764;2023-12-04T14:50:10;3.30;99.90
26503;DHT22;14177;51.520;6.764;2023-12-04T14:52:38;3.30;99.90
26503;DHT22;14177;51.520;6.764;2023-12-04T14:55:13;3.30;99.90
26503;DHT22;14177;51.520;6.764;2023-12-04T14:57:53;3.20;99.90
26503;DHT22;14177;51.520;6.764;2023-12-04T15:00:25;3.20;99.90
26503;DHT22;14177;51.520;6.764;2023-12-04T15:03:11;3.30;99.90
26503;DHT22;14177;51.520;6.764;2023-12-04T15:05:41;3.30;99.90
26503;DHT22;14177;51.520;6.764;2023-12-04T15:08:43;3.20;99.90
26503;DHT22;14177;51.520;6.764;2023-12-04T15:11:16;3.20;99.90
26503;DHT22;14177;51.520;6.764;2023-12-04T15:14:01;3.20;99.90
26503;DHT22;14177;51.520;6.764;2023-12-04T15:16:59;3.20;99.90
26503;DHT22;14177;51.520;6.764;2023-12-04T15:19:44;3.20;99.90
26503;DHT22;14177;51.520;6.764;2023-12-04T15:22:40;3.20;99.90
26503;DHT22;14177;51.520;6.764;2023-12-04T15:25:07;3.20;99.90
26503;DHT22;14177;51.520;6.764;2023-12-04T15:27:35;3.20;99.90
26503;DHT22;14177;51.520;6.764;2023-12-04T15:30:02;3.20;99.90
26503;DHT22;14177;51.520;6.764;2023-12-04T15:32:31;3.20;99.90
26503;DHT22;14177;51.520;6.764;2023-12-04T15:34:58;3.10;99.90
26503;DHT22;14177;51.520;6.764;2023-12-04T15:37:28;3.10;99.90
26503;DHT22;14177;51.520;6.764;2023-12-04T15:39:55;3.10;99.90
26503;DHT22;14177;51.520;6.764;2023-12-04T15:42:22;3.10;99.90
26503;DHT22;14177;51.520;6.764;2023-12-04T15:44:49;3.10;99.90
26503;DHT22;14177;51.520;6.764;2023-12-04T15:47:16;3.10;99.90
26503;DHT22;14177;51.520;6.764;2023-12-04T15:49:47;3.10;99.90
26503;DHT22;14177;51.520;6.764;2023-12-04T15:52:15;3.10;99.90
26503;DHT22;14177;51.520;6.764;2023-12-04T15:54:45;3.10;99.90
26503;DHT22;14177;51.520;6.764;2023-12-04T15:57:13;3.10;99.90
26503;DHT22;14177;51.520;6.764;2023-12-04T15:59:43;3.10;99.90